Time;durP1;ratioP1;P1;durP2;ratioP2;P2;SDS_P1;SDS_P2;PMS_P1;PMS_P2;Temp;Humidity;BMP_temperature;BMP_pressure;BME280_temperature;BME280_humidity;BME280_pressure;Samples;Min_cycle;Max_cycle;Signal;HPM_P1;HPM_P2
2021/06/12 00:03:38;;;;;;;13.62;9.13;;;;;;;18.21;81.15;100190.63;2761941;86;21079;-63
2021/06/12 00:07:41;;;;;;;9.53;7.33;;;;;;;18.25;80.78;100194.14;2765698;86;21067;-65
2021/06/12 00:11:44;;;;;;;10.80;7.65;;;;;;;18.23;80.11;100193.98;2764311;86;21051;-62
2021/06/12 00:15:46;;;;;;;8.45;5.50;;;;;;;18.21;80.05;100196.87;2752698;86;21047;-63
2021/06/12 00:19:48;;;;;;;11.93;7.17;;;;;;;18.07;79.84;100195.75;2752756;86;21008;-64
2021/06/12 00:23:49;;;;;;;10.18;6.37;;;;;;;17.98;79.80;100196.80;2752771;86;21012;-63
2021/06/12 00:27:52;;;;;;;8.18;6.15;;;;;;;17.90;80.28;100194.16;2759298;86;21012;-63
2021/06/12 00:31:54;;;;;;;9.65;5.67;;;;;;;17.89;81.11;100179.86;2730632;86;21063;-64
2021/06/12 00:35:55;;;;;;;11.75;7.28;;;;;;;17.92;81.33;100175.46;2752630;86;21008;-64
2021/06/12 00:39:57;;;;;;;11.10;6.97;;;;;;;18.02;81.57;100169.06;2748041;86;21044;-64
2021/06/12 00:43:59;;;;;;;8.70;7.80;;;;;;;18.10;81.57;100173.89;2740806;87;21108;-64
2021/06/12 00:48:01;;;;;;;11.25;8.85;;;;;;;18.15;81.36;100170.64;2744651;86;21612;-63
2021/06/12 00:52:04;;;;;;;12.88;8.63;;;;;;;18.18;82.04;100173.49;2761416;86;21011;-63
2021/06/12 00:56:10;;;;;;;12.95;8.63;;;;;;;18.21;82.27;100175.33;2764789;86;21052;-63
2021/06/12 01:00:17;;;;;;;10.45;7.37;;;;;;;18.16;82.14;100174.19;2764708;86;21024;-63
2021/06/12 01:04:18;;;;;;;12.00;8.20;;;;;;;18.18;82.95;100173.00;2764582;86;21000;-63
2021/06/12 01:08:20;;;;;;;9.90;7.70;;;;;;;18.25;82.41;100166.36;2764826;86;21015;-63
2021/06/12 01:12:50;;;;;;;9.38;7.37;;;;;;;18.20;82.01;100158.85;2764909;86;21080;-63
2021/06/12 01:17:13;;;;;;;12.55;7.35;;;;;;;18.21;81.44;100161.88;2764555;86;21028;-63
2021/06/12 01:21:47;;;;;;;13.25;9.98;;;;;;;18.15;81.36;100161.22;2764717;86;21082;-64
2021/06/12 01:26:07;;;;;;;14.18;9.68;;;;;;;18.16;81.40;100159.37;2763943;86;21588;-63
2021/06/12 01:30:19;;;;;;;10.90;6.95;;;;;;;18.15;81.32;100156.36;2764848;86;21051;-63
2021/06/12 01:34:23;;;;;;;8.75;7.87;;;;;;;18.05;81.32;100158.77;2764446;86;21059;-63
2021/06/12 01:38:32;;;;;;;10.93;8.23;;;;;;;18.02;81.39;100156.43;2764732;86;21095;-63
2021/06/12 01:42:36;;;;;;;8.85;7.95;;;;;;;18.02;81.25;100152.92;2763852;86;21068;-63
2021/06/12 01:46:39;;;;;;;15.20;8.63;;;;;;;18.01;80.93;100156.07;2735827;86;21017;-64
2021/06/12 01:50:42;;;;;;;8.08;7.08;;;;;;;17.95;81.09;100146.84;2753167;86;21043;-64
2021/06/12 01:54:44;;;;;;;13.58;8.60;;;;;;;17.95;81.10;100150.88;2764200;86;21047;-64
2021/06/12 01:58:47;;;;;;;9.03;8.13;;;;;;;17.95;81.45;100152.75;2767155;86;21019;-63
2021/06/12 02:02:49;;;;;;;10.58;9.03;;;;;;;17.94;81.75;100155.94;2758303;85;21059;-63
2021/06/12 02:06:52;;;;;;;12.25;10.88;;;;;;;17.98;81.81;100148.36;2747217;86;21565;-63
2021/06/12 02:10:55;;;;;;;13.68;10.48;;;;;;;17.97;82.11;100144.81;2747587;86;21020;-63
2021/06/12 02:14:59;;;;;;;14.15;9.58;;;;;;;17.96;82.02;100148.52;2747255;86;21091;-63
2021/06/12 02:19:03;;;;;;;13.43;9.88;;;;;;;17.95;82.05;100147.38;2747332;86;21048;-63
2021/06/12 02:23:08;;;;;;;17.55;9.83;;;;;;;17.96;82.08;100140.97;2720852;86;21044;-63
2021/06/12 02:27:11;;;;;;;11.50;10.20;;;;;;;17.95;82.22;100140.64;2747413;86;21057;-63
2021/06/12 02:31:32;;;;;;;10.63;9.45;;;;;;;17.99;82.01;100141.47;2747453;86;21079;-63
2021/06/12 02:35:34;;;;;;;10.45;9.45;;;;;;;18.00;81.39;100135.56;2746906;86;21510;-63
2021/06/12 02:39:37;;;;;;;10.48;9.30;;;;;;;17.99;81.36;100135.23;2747070;86;21039;-63
2021/06/12 02:43:39;;;;;;;12.05;8.95;;;;;;;17.94;81.23;100136.28;2746710;86;21076;-63
2021/06/12 02:48:00;;;;;;;12.93;9.70;;;;;;;17.90;81.53;100137.66;2747051;86;21497;-63
2021/06/12 02:52:07;;;;;;;14.10;9.45;;;;;;;17.85;81.70;100140.34;2747128;86;20984;-63
2021/06/12 02:56:11;;;;;;;11.57;8.98;;;;;;;17.90;81.89;100128.24;2747008;86;21594;-63
2021/06/12 03:00:17;;;;;;;10.30;9.20;;;;;;;17.92;81.86;100126.20;2743818;86;21671;-63
2021/06/12 03:04:21;;;;;;;11.00;9.83;;;;;;;17.95;81.76;100125.32;2741798;85;21067;-63
2021/06/12 03:08:39;;;;;;;15.15;10.13;;;;;;;17.99;81.84;100123.13;2743791;86;21072;-63
2021/06/12 03:12:43;;;;;;;14.33;11.55;;;;;;;18.02;81.49;100128.17;2736153;87;21060;-64
2021/06/12 03:16:46;;;;;;;10.28;8.75;;;;;;;18.09;81.65;100122.42;2736315;87;21008;-63
2021/06/12 03:20:48;;;;;;;10.50;8.88;;;;;;;18.12;81.55;100118.02;2736027;87;21071;-64
2021/06/12 03:24:50;;;;;;;12.93;9.18;;;;;;;18.15;81.45;100120.02;2736215;87;21498;-63
2021/06/12 03:28:52;;;;;;;12.43;10.10;;;;;;;18.19;81.72;100121.33;2736246;87;21072;-64
2021/06/12 03:32:55;;;;;;;14.20;10.35;;;;;;;18.27;82.26;100120.77;2736518;87;21072;-64
2021/06/12 03:36:57;;;;;;;12.10;8.60;;;;;;;18.35;82.46;100124.39;2736336;87;21075;-64
2021/06/12 03:40:59;;;;;;;12.35;8.20;;;;;;;18.49;83.19;100124.13;2736246;87;21120;-64
2021/06/12 03:45:06;;;;;;;16.97;9.83;;;;;;;18.66;83.49;100124.28;2710026;87;21124;-64
2021/06/12 03:49:10;;;;;;;14.03;8.80;;;;;;;18.89;83.59;100122.55;2736715;87;21529;-64
2021/06/12 03:53:12;;;;;;;10.25;8.90;;;;;;;19.11;83.53;100118.14;2736929;87;21318;-63
2021/06/12 03:57:14;;;;;;;11.03;8.63;;;;;;;19.31;82.61;100118.92;2737050;87;21046;-64
2021/06/12 04:01:17;;;;;;;12.10;8.55;;;;;;;19.37;80.28;100123.56;2738263;85;21040;-64
2021/06/12 04:05:19;;;;;;;9.90;8.23;;;;;;;19.39;79.94;100121.02;2756144;86;21024;-64
2021/06/12 04:09:21;;;;;;;8.03;7.12;;;;;;;19.43;79.92;100124.14;2760659;86;21023;-64
2021/06/12 04:13:23;;;;;;;8.18;7.12;;;;;;;19.48;80.35;100116.84;2760037;86;21079;-64
2021/06/12 04:17:25;;;;;;;10.28;7.90;;;;;;;19.62;81.10;100120.53;2757505;86;21040;-64
2021/06/12 04:21:29;;;;;;;9.25;6.97;;;;;;;19.92;81.44;100121.31;2762562;86;21079;-64
2021/06/12 04:25:32;;;;;;;8.43;7.20;;;;;;;20.43;82.21;100124.06;2658158;89;21060;-64
2021/06/12 04:29:34;;;;;;;14.68;7.45;;;;;;;20.66;79.98;100117.94;2737036;86;21042;-64
2021/06/12 04:33:37;;;;;;;12.75;8.35;;;;;;;20.92;80.91;100116.47;2761587;86;21033;-64
2021/06/12 04:37:39;;;;;;;7.33;6.62;;;;;;;21.17;79.32;100103.81;2761677;86;21093;-64
2021/06/12 04:41:40;;;;;;;10.05;6.10;;;;;;;21.18;79.44;100110.89;2761413;86;21170;-64
2021/06/12 04:45:42;;;;;;;7.72;5.97;;;;;;;21.29;79.63;100108.13;2760820;85;21063;-64
2021/06/12 04:49:45;;;;;;;7.85;7.03;;;;;;;21.32;79.23;100106.91;2764212;86;21110;-65
2021/06/12 04:53:47;;;;;;;6.62;6.05;;;;;;;21.38;79.17;100111.50;2749434;86;21040;-64
2021/06/12 04:57:48;;;;;;;5.97;5.37;;;;;;;21.51;79.27;100112.91;2742439;87;21546;-64
2021/06/12 05:01:50;;;;;;;6.17;5.62;;;;;;;21.50;78.89;100106.34;2749500;85;21146;-64
2021/06/12 05:05:52;;;;;;;7.08;5.78;;;;;;;21.64;79.84;100105.36;2721530;86;21079;-63
2021/06/12 05:09:53;;;;;;;6.75;5.55;;;;;;;21.78;79.14;100099.48;2749609;86;21041;-64
2021/06/12 05:13:56;;;;;;;8.45;6.80;;;;;;;21.90;79.45;100102.42;2739923;86;21101;-63
2021/06/12 05:17:59;;;;;;;7.47;5.78;;;;;;;22.09;80.10;100105.37;2737791;86;21025;-64
2021/06/12 05:22:00;;;;;;;6.33;5.55;;;;;;;22.29;78.52;100102.70;2733857;86;21036;-64
2021/06/12 05:26:07;;;;;;;7.75;6.92;;;;;;;22.46;78.68;100101.74;2742321;86;21059;-64
2021/06/12 05:30:10;;;;;;;8.60;6.37;;;;;;;22.63;78.50;100098.14;2728208;86;21017;-64
2021/06/12 05:34:12;;;;;;;13.95;5.70;;;;;;;22.85;78.04;100092.47;2738631;87;21009;-64
2021/06/12 05:38:13;;;;;;;8.90;6.17;;;;;;;23.29;77.36;100085.16;2746831;86;21012;-64
2021/06/12 05:42:15;;;;;;;6.25;5.62;;;;;;;23.53;75.87;100087.13;2750193;86;21012;-64
2021/06/12 05:46:19;;;;;;;8.95;5.67;;;;;;;23.72;74.62;100085.06;2750563;86;21032;-64
2021/06/12 05:50:20;;;;;;;9.18;6.47;;;;;;;24.05;74.87;100081.30;2745282;86;21047;-64
2021/06/12 05:54:22;;;;;;;9.70;6.65;;;;;;;24.39;73.53;100077.28;2739655;87;21199;-65
2021/06/12 05:58:24;;;;;;;14.18;7.22;;;;;;;24.70;72.61;100080.13;2739631;87;21025;-64
2021/06/12 06:02:26;;;;;;;8.00;6.10;;;;;;;24.98;71.40;100087.52;2745016;86;20992;-64
2021/06/12 06:06:28;;;;;;;8.45;6.22;;;;;;;25.09;70.28;100085.38;2765339;85;21059;-64
2021/06/12 06:10:29;;;;;;;5.65;5.15;;;;;;;25.21;68.76;100082.22;2770093;86;21001;-64
2021/06/12 06:14:31;;;;;;;6.95;5.65;;;;;;;25.29;68.18;100076.98;2767887;86;21020;-64
2021/06/12 06:18:35;;;;;;;20.55;8.65;;;;;;;25.25;68.21;100078.48;2703703;86;21072;-64
2021/06/12 06:22:38;;;;;;;10.90;6.53;;;;;;;25.13;67.81;100081.69;2702690;88;21071;-64
2021/06/12 06:26:39;;;;;;;6.35;5.40;;;;;;;25.01;68.35;100084.34;2702756;88;20992;-64
2021/06/12 06:30:41;;;;;;;6.53;5.95;;;;;;;25.01;69.59;100076.99;2702628;88;20980;-63
2021/06/12 06:34:45;;;;;;;10.43;6.30;;;;;;;25.24;69.34;100075.46;2702730;88;21079;-63
2021/06/12 06:38:46;;;;;;;8.90;6.62;;;;;;;25.50;68.21;100066.70;2702739;88;21028;-64
2021/06/12 06:42:48;;;;;;;6.58;5.97;;;;;;;25.79;67.19;100054.13;2749283;86;21139;-64
2021/06/12 06:46:50;;;;;;;15.32;6.28;;;;;;;26.01;65.98;100057.67;2774677;86;21079;-64
2021/06/12 06:50:52;;;;;;;7.17;5.37;;;;;;;26.17;64.28;100050.72;2775562;86;21094;-65
2021/06/12 06:54:54;;;;;;;5.92;5.25;;;;;;;26.22;64.69;100047.30;2769166;86;21072;-65
2021/06/12 06:58:56;;;;;;;7.42;6.42;;;;;;;26.21;64.28;100049.73;2767822;86;21036;-65
2021/06/12 07:02:59;;;;;;;6.55;5.95;;;;;;;26.21;64.43;100047.00;2760395;86;21024;-63
2021/06/12 07:07:03;;;;;;;5.37;4.87;;;;;;;26.31;66.34;100048.59;2740132;87;20957;-64
2021/06/12 07:11:05;;;;;;;6.50;5.35;;;;;;;26.38;64.25;100038.94;2740213;86;20997;-64
2021/06/12 07:15:10;;;;;;;7.45;6.62;;;;;;;26.33;64.54;100036.92;2739728;86;21013;-64
2021/06/12 07:19:11;;;;;;;;;;;;;;;26.57;65.34;100036.94;2742112;86;21024;-64
2021/06/12 07:23:15;;;;;;;12.18;6.53;;;;;;;26.64;63.70;100031.36;2732119;86;20143;-64
2021/06/12 07:27:17;;;;;;;8.65;5.97;;;;;;;26.59;63.41;100018.42;2720163;87;21044;-64
2021/06/12 07:31:56;;;;;;;7.42;5.53;;;;;;;26.66;64.18;100025.94;2731437;86;21081;-64
2021/06/12 07:35:58;;;;;;;5.03;4.60;;;;;;;26.90;64.53;100030.02;2731509;86;21070;-64
2021/06/12 07:40:00;;;;;;;7.65;4.92;;;;;;;27.34;62.81;100019.15;2732793;86;21520;-64
2021/06/12 07:44:02;;;;;;;7.20;5.10;;;;;;;27.60;62.34;100014.18;2737418;86;21054;-65
2021/06/12 07:48:09;;;;;;;6.20;5.45;;;;;;;27.67;60.83;100010.73;2721464;86;21049;-64
2021/06/12 07:52:11;;;;;;;16.27;6.67;;;;;;;27.46;59.71;100016.36;2731265;87;21072;-64
2021/06/12 07:56:15;;;;;;;6.00;5.40;;;;;;;27.25;61.94;100011.05;2733668;86;21044;-65
2021/06/12 08:00:21;;;;;;;11.05;8.23;;;;;;;27.38;62.04;100014.85;2706541;86;20993;-64
2021/06/12 08:04:26;;;;;;;11.50;6.20;;;;;;;27.62;61.19;100002.46;2682896;88;21032;-64
2021/06/12 08:08:28;;;;;;;5.58;5.05;;;;;;;27.92;61.58;100000.78;2695769;88;21064;-64
2021/06/12 08:12:31;;;;;;;4.45;4.03;;;;;;;28.29;59.96;100002.18;2695478;88;21031;-64
2021/06/12 08:16:33;;;;;;;5.55;4.10;;;;;;;28.50;58.52;99994.30;2695617;88;21047;-65
2021/06/12 08:20:34;;;;;;;3.90;3.60;;;;;;;28.56;57.95;99985.06;2752722;86;21079;-68
2021/06/12 08:24:36;;;;;;;4.17;3.77;;;;;;;28.76;58.61;99980.94;2774349;86;21031;-66
2021/06/12 08:28:38;;;;;;;28.52;6.45;;;;;;;28.73;58.86;99982.81;2773957;86;21027;-66
2021/06/12 08:32:40;;;;;;;4.67;3.50;;;;;;;28.90;57.05;99978.14;2763050;86;21031;-65
2021/06/12 08:36:41;;;;;;;3.15;2.85;;;;;;;28.95;56.76;99984.75;2758716;86;21020;-65
2021/06/12 08:40:43;;;;;;;5.50;2.62;;;;;;;28.96;56.59;99965.87;2762871;86;21035;-63
2021/06/12 08:44:47;;;;;;;2.85;2.60;;;;;;;29.09;56.25;99965.48;2759967;86;21095;-64
2021/06/12 08:48:48;;;;;;;2.77;2.50;;;;;;;29.17;55.08;99968.27;2750918;86;21027;-64
2021/06/12 08:52:54;;;;;;;2.42;2.20;;;;;;;29.23;55.89;99965.89;2757210;86;21008;-63
2021/06/12 08:56:58;;;;;;;2.42;2.22;;;;;;;29.40;55.27;99959.48;2763411;86;21027;-63
2021/06/12 09:01:00;;;;;;;2.75;2.55;;;;;;;29.44;55.05;99963.37;2763424;86;21040;-62
2021/06/12 09:05:02;;;;;;;11.28;3.20;;;;;;;29.43;55.38;99961.16;2764648;85;21024;-63
2021/06/12 09:09:04;;;;;;;64.82;13.83;;;;;;;29.26;52.84;99972.74;2754579;86;21291;-62
2021/06/12 09:13:09;;;;;;;3.80;3.50;;;;;;;28.92;55.76;99962.28;2754374;86;21028;-61
2021/06/12 09:17:14;;;;;;;;;;;;;;;28.64;56.47;99962.72;2739292;86;21032;-62
2021/06/12 09:21:35;;;;;;;3.65;2.45;;;;;;;28.39;57.16;99968.68;2659298;89;20115;-62
2021/06/12 09:25:43;;;;;;;6.12;3.30;;;;;;;28.27;56.65;99951.58;2657250;89;21073;-61
2021/06/12 09:29:50;;;;;;;3.80;3.35;;;;;;;28.15;58.15;99956.56;2659062;89;21140;-61
2021/06/12 09:33:55;;;;;;;3.90;3.35;;;;;;;28.20;58.61;99950.38;2659054;89;21117;-62
2021/06/12 09:37:57;;;;;;;;;;;;;;;28.03;58.11;99947.66;2661388;89;21464;-62
2021/06/12 09:41:59;;;;;;;3.72;3.37;;;;;;;27.68;58.77;99944.09;2659017;89;20127;-62
2021/06/12 09:46:06;;;;;;;7.62;4.12;;;;;;;27.49;60.82;99935.30;2658936;89;21822;-62
2021/06/12 09:50:10;;;;;;;3.85;3.42;;;;;;;27.53;59.97;99928.84;2629944;89;21054;-62
2021/06/12 09:54:12;;;;;;;4.33;3.53;;;;;;;27.44;59.56;99926.47;2659361;89;21074;-62
2021/06/12 09:58:14;;;;;;;4.40;4.00;;;;;;;27.26;59.86;99926.70;2659024;89;21798;-62
2021/06/12 10:02:37;;;;;;;5.55;3.37;;;;;;;27.03;61.70;99928.48;2716952;86;21595;-63
2021/06/12 10:06:39;;;;;;;4.00;3.60;;;;;;;26.82;62.69;99930.78;2738811;86;21120;-64
2021/06/12 10:10:46;;;;;;;4.15;3.85;;;;;;;26.74;64.94;99934.72;2739156;86;21040;-65
2021/06/12 10:14:51;;;;;;;68.85;13.75;;;;;;;26.72;65.45;99930.05;2742195;87;21521;-64
2021/06/12 10:18:55;;;;;;;30.32;11.12;;;;;;;26.61;62.53;99926.80;2743888;87;21021;-63
2021/06/12 10:22:59;;;;;;;5.58;4.37;;;;;;;26.36;63.54;99931.50;2758702;86;21542;-62
2021/06/12 10:27:02;;;;;;;6.80;3.87;;;;;;;26.05;64.08;99930.78;2733355;86;21008;-63
2021/06/12 10:31:23;;;;;;;5.45;4.05;;;;;;;25.65;64.80;99942.36;2752634;86;21071;-63
2021/06/12 10:35:27;;;;;;;4.45;4.12;;;;;;;25.10;69.27;99968.68;2747724;86;21051;-63
2021/06/12 10:39:38;;;;;;;4.30;3.20;;;;;;;24.16;74.06;100011.83;2714697;87;21044;-61
2021/06/12 10:43:42;;;;;;;14.23;5.67;;;;;;;23.32;78.63;100050.30;2735961;87;21151;-63
2021/06/12 10:47:49;;;;;;;4.03;3.42;;;;;;;22.54;82.91;100053.30;2736620;87;21032;-63
2021/06/12 10:51:51;;;;;;;5.35;4.65;;;;;;;21.96;85.44;100031.22;2656779;89;21047;-63
2021/06/12 10:55:55;;;;;;;4.28;3.85;;;;;;;21.76;86.46;100016.30;2656575;89;21087;-63
2021/06/12 11:00:00;;;;;;;5.33;4.85;;;;;;;21.77;87.11;100004.43;2657112;89;21051;-63
2021/06/12 11:04:14;;;;;;;6.22;4.95;;;;;;;21.83;87.73;99995.50;2656800;89;21151;-63
2021/06/12 11:08:16;;;;;;;5.28;4.78;;;;;;;21.97;88.30;99988.72;2690972;88;21052;-64
2021/06/12 11:12:23;;;;;;;5.55;5.10;;;;;;;22.27;88.87;99965.27;2699944;88;21095;-64
2021/06/12 11:16:25;;;;;;;7.42;5.92;;;;;;;22.59;88.26;99957.28;2700107;88;20996;-64
2021/06/12 11:20:30;;;;;;;10.00;6.17;;;;;;;22.96;86.79;99943.17;2700190;88;21083;-64
2021/06/12 11:24:32;;;;;;;5.50;4.87;;;;;;;23.30;86.06;99942.50;2711774;86;21004;-63
2021/06/12 11:28:36;;;;;;;6.28;5.28;;;;;;;23.69;85.05;99934.27;2733455;86;21059;-63
2021/06/12 11:32:58;;;;;;;5.75;5.25;;;;;;;24.09;85.00;99924.44;2752196;86;21036;-63
2021/06/12 11:37:20;;;;;;;7.72;5.25;;;;;;;24.55;83.18;99917.89;2703362;87;20997;-63
2021/06/12 11:41:23;;;;;;;5.97;5.37;;;;;;;24.79;80.54;99910.72;2727604;86;21044;-63
2021/06/12 11:45:35;;;;;;;5.03;4.62;;;;;;;24.99;81.04;99915.88;2748800;86;21584;-63
2021/06/12 11:49:49;;;;;;;8.53;5.05;;;;;;;25.06;79.41;99911.19;2753398;86;20981;-63
2021/06/12 11:54:21;;;;;;;4.90;4.40;;;;;;;25.05;79.48;99912.77;2742582;86;20996;-64
2021/06/12 11:58:22;;;;;;;5.97;5.40;;;;;;;24.93;78.77;99909.46;2740412;87;21052;-66
2021/06/12 12:02:24;;;;;;;9.65;4.90;;;;;;;24.94;80.68;99912.48;2737311;87;21311;-67
2021/06/12 12:06:26;;;;;;;5.60;5.05;;;;;;;25.00;78.81;99893.05;2729753;86;21056;-63
2021/06/12 12:10:30;;;;;;;5.95;5.40;;;;;;;25.09;78.88;99897.13;2701330;87;21048;-65
2021/06/12 12:14:41;;;;;;;5.03;4.62;;;;;;;25.27;78.15;99896.76;2702787;86;21098;-65
2021/06/12 12:18:49;;;;;;;6.92;5.80;;;;;;;25.40;77.71;99882.11;2704525;86;21035;-62
2021/06/12 12:22:52;;;;;;;6.05;5.12;;;;;;;25.43;76.22;99883.51;2746990;86;21059;-63
2021/06/12 12:27:01;;;;;;;17.55;10.18;;;;;;;25.27;77.57;99880.94;2746526;86;21031;-62
2021/06/12 12:31:09;;;;;;;6.75;6.15;;;;;;;25.01;78.79;99889.81;2755546;86;21043;-63
2021/06/12 12:35:17;;;;;;;8.20;7.15;;;;;;;24.62;80.00;99880.05;2709121;86;21000;-62
2021/06/12 12:39:19;;;;;;;9.90;6.75;;;;;;;24.31;82.41;99890.03;2724175;86;21044;-62
2021/06/12 12:43:21;;;;;;;8.35;6.97;;;;;;;24.24;83.60;99877.06;2747220;86;21067;-62
2021/06/12 12:47:26;;;;;;;8.45;7.72;;;;;;;24.00;82.88;99862.44;2747121;86;21044;-64
2021/06/12 12:51:30;;;;;;;9.53;7.85;;;;;;;23.87;83.01;99861.52;2737236;86;21070;-62
2021/06/12 12:55:32;;;;;;;9.20;8.20;;;;;;;23.74;83.09;99843.47;2728787;86;21063;-62
2021/06/12 12:59:38;;;;;;;9.30;7.85;;;;;;;23.59;83.53;99852.52;2681752;86;21079;-63
2021/06/12 13:03:51;;;;;;;15.40;9.35;;;;;;;23.45;84.06;99842.28;2656575;89;21060;-64
2021/06/12 13:08:02;;;;;;;11.40;7.97;;;;;;;23.43;85.22;99823.52;2656399;89;21060;-63
2021/06/12 13:12:08;;;;;;;9.28;8.30;;;;;;;23.47;85.82;99814.39;2656318;89;21558;-63
2021/06/12 13:16:12;;;;;;;10.58;9.35;;;;;;;23.58;86.54;99811.47;2655130;89;21107;-64
2021/06/12 13:20:20;;;;;;;9.00;8.20;;;;;;;23.61;87.09;99795.57;2633313;89;21360;-64
2021/06/12 13:24:22;;;;;;;22.32;11.57;;;;;;;23.67;87.97;99795.20;2656547;89;21000;-63
2021/06/12 13:28:27;;;;;;;27.70;14.58;;;;;;;23.70;87.75;99796.11;2656746;89;21006;-63
2021/06/12 13:32:32;;;;;;;16.10;10.93;;;;;;;23.73;87.03;99806.52;2656578;89;21577;-64
2021/06/12 13:36:34;;;;;;;9.13;8.23;;;;;;;23.75;87.51;99813.09;2657280;89;20996;-63
2021/06/12 13:40:40;;;;;;;9.28;7.03;;;;;;;23.55;86.62;99791.05;2656809;89;21471;-64
2021/06/12 13:44:46;;;;;;;9.63;7.97;;;;;;;23.49;85.06;99794.13;2656027;89;21144;-64
2021/06/12 13:48:50;;;;;;;7.95;7.12;;;;;;;23.20;82.68;99790.18;2654106;89;21048;-63
2021/06/12 13:52:52;;;;;;;9.50;7.95;;;;;;;22.82;83.14;99794.11;2656564;89;21004;-63
2021/06/12 13:56:54;;;;;;;10.82;9.30;;;;;;;22.50;84.70;99800.04;2656364;89;21040;-64
2021/06/12 14:00:55;;;;;;;16.30;7.92;;;;;;;22.34;86.20;99808.94;2655978;89;21016;-63
2021/06/12 14:04:57;;;;;;;9.78;7.75;;;;;;;21.96;87.58;99811.05;2660118;89;21056;-62
2021/06/12 14:08:59;;;;;;;9.70;6.62;;;;;;;21.48;91.21;99822.47;2671497;89;21019;-64
2021/06/12 14:13:04;;;;;;;5.97;5.40;;;;;;;21.11;90.91;99850.44;2670513;89;21071;-63
2021/06/12 14:17:06;;;;;;;7.20;4.83;;;;;;;20.85;91.39;99855.27;2671046;89;21119;-62
2021/06/12 14:21:10;;;;;;;6.37;5.22;;;;;;;20.69;92.33;99840.55;2670553;89;21059;-62
2021/06/12 14:25:14;;;;;;;4.97;4.50;;;;;;;20.67;92.75;99837.72;2671749;89;21083;-62
2021/06/12 14:29:17;;;;;;;8.13;5.08;;;;;;;20.61;92.84;99844.77;2671472;89;21059;-62
2021/06/12 14:33:21;;;;;;;7.05;5.03;;;;;;;20.52;93.40;99846.00;2671546;89;21055;-61
2021/06/12 14:37:23;;;;;;;7.42;5.40;;;;;;;20.45;93.86;99848.67;2671697;89;21070;-62
2021/06/12 14:41:25;;;;;;;6.87;5.25;;;;;;;20.38;94.91;99864.84;2670941;89;21127;-62
2021/06/12 14:45:29;;;;;;;7.08;6.42;;;;;;;20.39;95.50;99848.95;2670739;89;21078;-62
2021/06/12 14:49:31;;;;;;;7.08;6.12;;;;;;;20.49;95.73;99849.92;2671163;89;21015;-61
2021/06/12 14:53:33;;;;;;;9.25;6.15;;;;;;;20.60;95.80;99834.18;2671369;89;21075;-61
2021/06/12 14:57:34;;;;;;;11.28;8.30;;;;;;;20.75;96.54;99829.95;2671667;89;21012;-61
2021/06/12 15:01:36;;;;;;;9.05;7.60;;;;;;;21.07;97.28;99818.09;2671856;89;21044;-64
2021/06/12 15:05:38;;;;;;;12.78;8.00;;;;;;;21.54;97.11;99801.33;2672223;88;21075;-63
2021/06/12 15:09:40;;;;;;;12.55;7.53;;;;;;;22.13;96.69;99781.64;2769586;85;21043;-63
2021/06/12 15:13:42;;;;;;;9.80;7.95;;;;;;;22.37;90.98;99788.72;2779460;85;21020;-63
2021/06/12 15:17:43;;;;;;;14.20;8.30;;;;;;;22.52;90.73;99785.75;2773081;85;21015;-63
2021/06/12 15:21:45;;;;;;;9.28;7.17;;;;;;;22.73;89.97;99790.02;2778514;85;21072;-64
2021/06/12 15:25:47;;;;;;;11.22;8.28;;;;;;;23.06;88.26;99786.21;2771637;86;21063;-64
2021/06/12 15:29:48;;;;;;;9.05;6.78;;;;;;;23.18;85.59;99787.67;2766120;85;21063;-68
2021/06/12 15:33:52;;;;;;;14.98;5.12;;;;;;;23.14;83.79;99795.14;2769218;85;21063;-66
2021/06/12 15:37:55;;;;;;;8.58;6.62;;;;;;;23.08;83.15;99794.14;2779452;85;21105;-67
2021/06/12 15:41:56;;;;;;;8.05;6.25;;;;;;;22.92;82.33;99794.98;2736580;85;21088;-66
2021/06/12 15:45:58;;;;;;;5.67;5.15;;;;;;;22.71;82.87;99791.27;2712136;86;21111;-66
2021/06/12 15:50:02;;;;;;;8.70;5.75;;;;;;;22.51;82.74;99795.77;2671679;87;21063;-66
2021/06/12 15:54:05;;;;;;;6.85;4.72;;;;;;;22.25;81.97;99792.09;2669535;89;21096;-66
2021/06/12 15:58:07;;;;;;;6.22;5.60;;;;;;;22.03;82.73;99780.74;2670055;89;21024;-66
2021/06/12 16:02:10;;;;;;;8.50;5.67;;;;;;;21.82;83.48;99801.63;2669965;89;21055;-65
2021/06/12 16:06:12;;;;;;;5.95;5.08;;;;;;;21.66;84.55;99798.02;2666619;89;21099;-66
2021/06/12 16:10:16;;;;;;;6.78;6.08;;;;;;;21.53;84.93;99803.72;2663561;89;21100;-66
2021/06/12 16:14:17;;;;;;;4.58;4.17;;;;;;;21.41;85.67;99806.73;2663326;89;20996;-65
2021/06/12 16:18:19;;;;;;;12.78;8.30;;;;;;;21.32;86.41;99821.53;2687430;88;21087;-72
2021/06/12 16:22:21;;;;;;;6.85;3.30;;;;;;;21.08;89.73;99927.91;2707095;88;21071;-67
2021/06/12 16:26:23;;;;;;;3.12;2.83;;;;;;;19.36;87.92;99968.17;2705343;88;21031;-69
2021/06/12 16:30:25;;;;;;;5.62;3.17;;;;;;;17.98;90.46;99962.69;2704247;88;21553;-66
2021/06/12 16:34:27;;;;;;;4.70;3.58;;;;;;;17.25;93.25;99962.56;2702826;87;21072;-70
2021/06/12 16:38:29;;;;;;;3.58;2.87;;;;;;;16.91;95.22;99971.80;2743457;86;21537;-70
2021/06/12 16:42:30;;;;;;;5.90;3.95;;;;;;;16.70;96.16;99961.15;2751111;86;21111;-71
2021/06/12 16:46:32;;;;;;;5.90;4.70;;;;;;;16.63;97.38;99964.70;2743701;86;21119;-68
2021/06/12 16:50:34;;;;;;;6.33;4.53;;;;;;;16.65;98.45;99972.89;2722756;86;21103;-67
2021/06/12 16:54:43;;;;;;;4.45;4.05;;;;;;;16.73;98.99;99968.52;2755741;86;21035;-73
2021/06/12 17:02:47;;;;;;;8.73;5.60;;;;;;;16.83;98.96;99967.80;2660801;89;21043;-69
2021/06/12 17:06:49;;;;;;;6.70;4.53;;;;;;;16.85;98.93;99993.97;2648685;89;21135;-69
2021/06/12 17:10:52;;;;;;;4.22;3.83;;;;;;;16.84;99.00;99988.27;2680364;87;21112;-73
2021/06/12 17:14:54;;;;;;;6.08;5.22;;;;;;;16.83;99.02;99993.31;2702377;86;21024;-71
2021/06/12 17:18:55;;;;;;;6.70;4.78;;;;;;;16.82;99.24;99991.64;2717022;86;21040;-73
2021/06/12 17:22:57;;;;;;;7.37;5.85;;;;;;;16.83;99.43;99991.97;2724162;87;21100;-69
2021/06/12 17:27:01;;;;;;;6.45;4.85;;;;;;;16.84;99.53;99996.33;2724782;87;21092;-66
2021/06/12 17:31:06;;;;;;;12.25;5.62;;;;;;;16.88;100.00;100001.67;2724866;87;21593;-67
2021/06/12 17:35:10;;;;;;;6.47;4.92;;;;;;;16.92;99.86;100008.40;2724234;87;21080;-67
2021/06/12 17:39:13;;;;;;;6.37;5.53;;;;;;;16.92;99.90;100012.43;2724814;87;21000;-72
2021/06/12 17:43:16;;;;;;;7.08;6.00;;;;;;;16.92;100.00;100017.80;2681019;87;21132;-77
2021/06/12 17:47:17;;;;;;;11.40;6.15;;;;;;;16.95;100.00;100017.45;2571230;90;21102;-77
2021/06/12 17:51:19;;;;;;;6.53;5.90;;;;;;;16.95;100.00;100009.39;2714487;86;21056;-76
2021/06/12 17:55:22;;;;;;;8.48;5.85;;;;;;;16.93;100.00;100017.28;2730219;86;21108;-75
2021/06/12 17:59:23;;;;;;;8.80;6.03;;;;;;;16.94;100.00;100033.23;2730825;87;21046;-72
2021/06/12 18:03:27;;;;;;;12.13;8.25;;;;;;;16.93;100.00;100043.66;2732660;87;21059;-70
2021/06/12 18:07:30;;;;;;;10.00;7.55;;;;;;;16.92;100.00;100050.53;2742808;86;21572;-76
2021/06/12 18:11:32;;;;;;;9.38;8.08;;;;;;;16.95;100.00;100047.00;2748892;86;21111;-75
2021/06/12 18:15:33;;;;;;;8.35;7.12;;;;;;;17.01;100.00;100047.34;2749005;86;21040;-73
2021/06/12 18:19:35;;;;;;;8.33;7.22;;;;;;;17.07;100.00;100041.26;2664649;86;21055;-75
2021/06/12 18:23:37;;;;;;;8.98;8.20;;;;;;;17.07;100.00;100043.95;2650939;88;21541;-74
2021/06/12 18:27:39;;;;;;;12.03;8.80;;;;;;;17.03;100.00;100057.41;2651451;89;21068;-75
2021/06/12 18:31:42;;;;;;;8.93;8.03;;;;;;;17.02;99.94;100049.02;2663504;86;21340;-74
2021/06/12 18:35:43;;;;;;;11.05;8.78;;;;;;;16.95;99.87;100057.75;2669775;86;21103;-71
2021/06/12 18:39:45;;;;;;;12.50;8.90;;;;;;;16.93;100.00;100061.11;2651792;89;21071;-72
2021/06/12 18:43:50;;;;;;;11.15;9.68;;;;;;;16.92;100.00;100063.47;2651846;89;21159;-73
2021/06/12 18:47:58;;;;;;;18.52;10.13;;;;;;;16.94;100.00;100060.59;2650451;88;21417;-73
2021/06/12 18:51:59;;;;;;;12.98;9.83;;;;;;;16.92;100.00;100076.91;2651543;89;21644;-69
2021/06/12 18:56:01;;;;;;;17.12;9.03;;;;;;;16.91;100.00;100064.97;2723231;86;21585;-70
2021/06/12 19:00:07;;;;;;;10.65;9.03;;;;;;;16.84;100.00;100073.73;2768324;86;21086;-70
2021/06/12 19:04:09;;;;;;;14.00;11.10;;;;;;;16.78;100.00;100072.23;2768198;86;21051;-71